Time;durP1;ratioP1;P1;durP2;ratioP2;P2;SDS_P1;SDS_P2;PMS_P1;PMS_P2;Temp;Humidity;BMP_temperature;BMP_pressure;BME280_temperature;BME280_humidity;BME280_pressure;Samples;Min_cycle;Max_cycle;Signal;HPM_P1;HPM_P2
2023/05/18 00:01:13;;;;;;;3.90;3.60;;;;;;;20.81;49.26;99784.57;104759;1259;69619;-60
2023/05/18 00:03:40;;;;;;;6.00;3.80;;;;;;;20.77;49.42;99784.35;104955;1258;75380;-60
2023/05/18 00:06:08;;;;;;;3.80;3.50;;;;;;;20.76;49.03;99786.57;104381;1267;64590;-60
2023/05/18 00:08:36;;;;;;;5.90;3.90;;;;;;;20.75;49.40;99787.58;104337;1260;62854;-62
2023/05/18 00:11:04;;;;;;;4.00;3.60;;;;;;;20.74;49.32;99790.34;104848;1261;73313;-62
2023/05/18 00:13:31;;;;;;;4.70;3.60;;;;;;;20.70;49.59;99784.62;104368;1259;70393;-60
2023/05/18 00:15:59;;;;;;;;;;;;;;;20.69;49.38;99791.80;104421;1274;72723;-59
2023/05/18 00:18:26;;;;;;;3.50;3.20;;;;;;;20.70;50.39;99790.14;104417;1260;63801;-59
2023/05/18 00:21:00;;;;;;;5.70;3.20;;;;;;;20.65;49.85;99791.05;104345;1259;59912;-59
2023/05/18 00:23:31;;;;;;;4.00;3.70;;;;;;;20.65;49.91;99792.48;104360;1270;73351;-60
2023/05/18 00:26:00;;;;;;;4.80;4.00;;;;;;;20.61;51.00;99789.23;104475;1263;70501;-60
2023/05/18 00:28:27;;;;;;;5.10;4.00;;;;;;;20.56;50.51;99792.29;104387;1268;72616;-60
2023/05/18 00:30:55;;;;;;;5.70;3.60;;;;;;;20.54;50.52;99790.69;104343;1259;61642;-59
2023/05/18 00:33:22;;;;;;;9.60;3.80;;;;;;;20.54;50.58;99788.73;104391;1267;60868;-60
2023/05/18 00:35:49;;;;;;;4.30;3.90;;;;;;;20.50;50.49;99788.13;104446;1259;73029;-59
2023/05/18 00:38:16;;;;;;;4.20;3.70;;;;;;;20.46;50.91;99789.02;104507;1259;69961;-60
2023/05/18 00:40:44;;;;;;;4.00;3.70;;;;;;;20.45;50.80;99789.13;104323;1256;72998;-59
2023/05/18 00:43:11;;;;;;;4.30;3.90;;;;;;;20.45;50.42;99786.58;104343;1260;63309;-59
2023/05/18 00:45:38;;;;;;;4.50;3.70;;;;;;;20.48;50.37;99786.01;104404;1259;60487;-60
2023/05/18 00:48:05;;;;;;;4.90;3.70;;;;;;;20.52;50.60;99783.55;104455;1259;73137;-60
2023/05/18 00:50:33;;;;;;;6.20;3.60;;;;;;;20.56;50.56;99780.56;104343;1253;70405;-60
2023/05/18 00:53:00;;;;;;;3.90;3.50;;;;;;;20.58;50.58;99777.91;104267;1260;73803;-61
2023/05/18 00:55:28;;;;;;;4.90;4.10;;;;;;;20.61;50.39;99781.00;104347;1254;62552;-60
2023/05/18 00:57:55;;;;;;;4.10;3.40;;;;;;;20.65;50.19;99782.48;107524;1253;61265;-61
2023/05/18 01:00:23;;;;;;;4.30;3.80;;;;;;;20.70;50.59;99779.98;106233;1254;72691;-60
2023/05/18 01:02:51;;;;;;;4.00;3.60;;;;;;;20.70;50.98;99780.85;105151;1256;70043;-60
2023/05/18 01:05:20;;;;;;;8.10;3.50;;;;;;;20.68;50.81;99782.96;104407;1275;72650;-61
2023/05/18 01:07:49;;;;;;;4.20;3.50;;;;;;;20.64;50.81;99779.73;104635;1259;62230;-60
2023/05/18 01:10:17;;;;;;;4.30;3.90;;;;;;;20.64;51.16;99781.73;104574;1254;61881;-60
2023/05/18 01:13:03;;;;;;;4.60;4.20;;;;;;;20.64;51.27;99782.95;104178;1276;73383;-60
2023/05/18 01:15:36;;;;;;;6.80;4.00;;;;;;;20.67;51.50;99786.60;104568;1260;71699;-60
2023/05/18 01:18:42;;;;;;;4.80;4.00;;;;;;;20.64;51.12;99788.64;104372;1258;71739;-60
2023/05/18 01:21:17;;;;;;;4.10;3.70;;;;;;;20.65;51.38;99791.76;108189;1255;61456;-61
2023/05/18 01:24:03;;;;;;;6.00;4.20;;;;;;;20.56;51.59;99796.88;104763;1260;61262;-60
2023/05/18 01:26:36;;;;;;;4.00;3.60;;;;;;;20.48;52.03;99797.91;104656;1254;73372;-60
2023/05/18 01:29:08;;;;;;;4.00;3.60;;;;;;;20.45;52.33;99803.01;104505;1260;70509;-59
2023/05/18 01:31:35;;;;;;;4.30;4.00;;;;;;;20.39;52.28;99796.65;104591;1257;72475;-60
2023/05/18 01:34:03;;;;;;;6.30;4.00;;;;;;;20.34;52.32;99801.55;104608;1263;64454;-60
2023/05/18 01:36:30;;;;;;;4.30;3.80;;;;;;;20.29;52.55;99804.77;104474;1259;60222;-62
2023/05/18 01:39:00;;;;;;;4.50;3.90;;;;;;;20.25;52.57;99809.78;104306;1260;75523;-60
2023/05/18 01:41:29;;;;;;;5.30;3.50;;;;;;;20.23;52.22;99808.50;104507;1270;70975;-60
2023/05/18 01:44:11;;;;;;;4.40;3.60;;;;;;;20.20;52.12;99810.15;104382;1260;73435;-60
2023/05/18 01:46:47;;;;;;;4.00;3.70;;;;;;;20.19;52.56;99812.91;104562;1270;62767;-60
2023/05/18 01:49:17;;;;;;;4.50;4.10;;;;;;;20.12;52.08;99814.14;104369;1270;60408;-61
2023/05/18 01:51:45;;;;;;;4.60;3.90;;;;;;;20.05;52.34;99810.80;104360;1259;75255;-60
2023/05/18 01:54:14;;;;;;;4.20;3.80;;;;;;;20.00;52.24;99814.25;104246;1261;70815;-61
2023/05/18 01:56:41;;;;;;;4.00;3.70;;;;;;;19.92;52.46;99819.16;104408;1259;73049;-61
2023/05/18 01:59:09;;;;;;;3.70;3.40;;;;;;;19.86;52.62;99822.81;106649;1253;61648;-60
2023/05/18 02:01:36;;;;;;;4.10;3.70;;;;;;;19.87;53.03;99822.91;105823;1256;60634;-60
2023/05/18 02:04:08;;;;;;;4.80;3.50;;;;;;;19.82;53.74;99821.35;104873;1258;73847;-60
2023/05/18 02:06:36;;;;;;;4.20;3.80;;;;;;;19.73;54.37;99822.22;104537;1262;69026;-60
2023/05/18 02:09:04;;;;;;;5.80;3.70;;;;;;;19.69;54.79;99823.79;104433;1257;72870;-60
2023/05/18 02:11:32;;;;;;;4.40;4.00;;;;;;;19.66;54.22;99824.89;104346;1276;62582;-60
2023/05/18 02:14:00;;;;;;;3.90;3.60;;;;;;;19.61;54.22;99827.16;104340;1264;62194;-59
2023/05/18 02:16:27;;;;;;;4.50;4.00;;;;;;;19.60;54.63;99826.94;104538;1261;72863;-61
2023/05/18 02:18:54;;;;;;;4.30;3.90;;;;;;;19.60;54.84;99830.70;104418;1260;70104;-61
2023/05/18 02:21:22;;;;;;;3.80;3.50;;;;;;;19.58;55.03;99825.88;104476;1270;73036;-61
2023/05/18 02:23:49;;;;;;;5.00;3.30;;;;;;;19.57;55.21;99828.45;104384;1259;62706;-60
2023/05/18 02:26:16;;;;;;;4.30;3.90;;;;;;;19.55;55.45;99830.51;104340;1260;62550;-61
2023/05/18 02:28:51;;;;;;;4.10;3.70;;;;;;;19.55;55.46;99830.69;104395;1267;73854;-58
2023/05/18 02:31:18;;;;;;;3.60;3.40;;;;;;;19.54;55.07;99834.33;104442;1270;70472;-60
2023/05/18 02:33:45;;;;;;;4.90;3.10;;;;;;;19.53;55.12;99835.65;104385;1261;72918;-61
2023/05/18 02:36:13;;;;;;;4.70;4.00;;;;;;;19.51;55.44;99837.41;104430;1266;61885;-60
2023/05/18 02:38:42;;;;;;;3.90;3.60;;;;;;;19.51;55.33;99837.99;104457;1270;61370;-61
2023/05/18 02:41:10;;;;;;;5.30;3.90;;;;;;;19.52;55.64;99841.81;104413;1258;73663;-60
2023/05/18 02:43:37;;;;;;;4.30;4.00;;;;;;;19.53;55.83;99843.27;104472;1269;69066;-61
2023/05/18 02:46:05;;;;;;;;;;;;;;;19.53;55.94;99840.29;104362;1274;71755;-61
2023/05/18 02:48:32;;;;;;;3.20;3.00;;;;;;;19.57;57.30;99845.08;104761;1269;63591;-61
2023/05/18 02:51:00;;;;;;;3.90;3.60;;;;;;;19.55;56.10;99845.63;104550;1260;60965;-60
2023/05/18 02:53:27;;;;;;;4.30;3.90;;;;;;;19.57;56.61;99848.30;104623;1254;74691;-60
2023/05/18 02:56:02;;;;;;;4.00;3.60;;;;;;;19.60;56.82;99847.77;104439;1254;70143;-59
2023/05/18 02:58:49;;;;;;;4.50;4.10;;;;;;;19.64;57.72;99850.80;108139;1254;72978;-60
2023/05/18 03:01:21;;;;;;;4.10;3.50;;;;;;;19.67;58.12;99851.44;107107;1260;63141;-61
2023/05/18 03:03:51;;;;;;;3.90;3.50;;;;;;;19.70;58.43;99852.67;105006;1257;61136;-60
2023/05/18 03:06:25;;;;;;;5.90;3.70;;;;;;;19.72;58.75;99854.15;104792;1259;74543;-61
2023/05/18 03:08:53;;;;;;;4.30;3.60;;;;;;;19.72;59.48;99853.77;105035;1257;69092;-59
2023/05/18 03:11:22;;;;;;;4.00;3.40;;;;;;;19.72;59.70;99853.24;105215;1260;74578;-59
2023/05/18 03:13:50;;;;;;;4.70;3.90;;;;;;;19.75;59.72;99854.04;104584;1259;62179;-59
2023/05/18 03:16:17;;;;;;;6.40;3.50;;;;;;;19.74;59.41;99849.85;104527;1257;61192;-59
2023/05/18 03:18:45;;;;;;;4.60;4.30;;;;;;;19.72;59.86;99847.02;104507;1269;74568;-61
2023/05/18 03:21:13;;;;;;;7.20;4.50;;;;;;;19.71;60.63;99851.67;104613;1261;70694;-61
2023/05/18 03:23:40;;;;;;;5.70;3.90;;;;;;;19.77;59.67;99851.11;108226;1254;73292;-62
2023/05/18 03:26:10;;;;;;;4.80;4.10;;;;;;;19.81;60.07;99853.39;106843;1257;62099;-61
2023/05/18 03:28:38;;;;;;;4.90;4.10;;;;;;;19.86;61.08;99856.77;105152;1257;60245;-60
2023/05/18 03:31:05;;;;;;;5.80;4.00;;;;;;;19.92;60.44;99855.05;104449;1260;74727;-59
2023/05/18 03:33:32;;;;;;;4.00;3.70;;;;;;;20.00;59.88;99858.37;104894;1253;69704;-61
2023/05/18 03:36:02;;;;;;;6.60;4.30;;;;;;;20.08;59.67;99859.01;104784;1257;73359;-62
2023/05/18 03:38:30;;;;;;;4.70;3.50;;;;;;;20.19;59.50;99864.34;104540;1254;64474;-63
2023/05/18 03:41:01;;;;;;;3.70;3.40;;;;;;;20.31;60.12;99863.24;104511;1267;60476;-61
2023/05/18 03:43:31;;;;;;;4.80;3.70;;;;;;;20.39;60.57;99866.28;104373;1266;73788;-60
2023/05/18 03:45:59;;;;;;;3.90;3.60;;;;;;;20.48;60.25;99870.00;104865;1261;69428;-60
2023/05/18 03:48:26;;;;;;;4.00;3.60;;;;;;;20.55;60.08;99868.21;104492;1261;74282;-63
2023/05/18 03:50:54;;;;;;;5.00;3.90;;;;;;;20.62;59.89;99871.23;104507;1261;62738;-61
2023/05/18 03:53:21;;;;;;;4.10;3.80;;;;;;;20.75;60.03;99871.66;104463;1257;60728;-61
2023/05/18 03:55:50;;;;;;;4.20;3.90;;;;;;;20.85;59.60;99874.34;104460;1262;75753;-59
2023/05/18 03:58:21;;;;;;;4.20;3.30;;;;;;;20.93;59.16;99874.21;105814;1257;70657;-60
2023/05/18 04:00:48;;;;;;;4.20;3.90;;;;;;;20.99;59.15;99873.94;108025;1254;72863;-61
2023/05/18 04:03:15;;;;;;;4.60;3.40;;;;;;;21.07;59.02;99871.64;105389;1258;62655;-61
2023/05/18 04:05:43;;;;;;;3.30;3.10;;;;;;;21.14;58.89;99874.10;104690;1258;60581;-59
2023/05/18 04:08:13;;;;;;;3.40;3.20;;;;;;;21.20;58.51;99877.87;104732;1260;74223;-59
2023/05/18 04:10:42;;;;;;;4.30;3.40;;;;;;;21.26;58.66;99876.11;104833;1254;71001;-60
2023/05/18 04:13:09;;;;;;;3.80;3.50;;;;;;;21.36;58.54;99878.70;104508;1272;74092;-62
2023/05/18 04:15:37;;;;;;;5.90;3.80;;;;;;;21.46;59.01;99882.92;104499;1259;62481;-60
2023/05/18 04:18:04;;;;;;;3.90;3.60;;;;;;;21.54;58.55;99883.98;104506;1261;60504;-59
2023/05/18 04:20:31;;;;;;;4.20;3.30;;;;;;;21.62;58.04;99886.11;104413;1258;74401;-62
2023/05/18 04:23:00;;;;;;;4.50;3.70;;;;;;;21.70;58.38;99887.40;104263;1270;69868;-61
2023/05/18 04:25:27;;;;;;;3.60;3.30;;;;;;;21.75;58.55;99889.13;104299;1268;72712;-59
2023/05/18 04:27:55;;;;;;;4.30;3.90;;;;;;;21.82;58.07;99889.65;104881;1258;62256;-62
2023/05/18 04:30:25;;;;;;;5.50;3.90;;;;;;;21.89;57.50;99895.68;104201;1270;60595;-60
2023/05/18 04:32:53;;;;;;;4.40;4.00;;;;;;;21.93;58.01;99891.70;104309;1260;73976;-59
2023/05/18 04:35:20;;;;;;;5.00;4.50;;;;;;;22.00;57.64;99895.98;104346;1267;69930;-60
2023/05/18 04:37:48;;;;;;;6.20;4.30;;;;;;;22.07;57.00;99897.33;104356;1273;72808;-59
2023/05/18 04:40:16;;;;;;;4.20;3.80;;;;;;;22.15;57.06;99898.77;104467;1257;61592;-59
2023/05/18 04:42:46;;;;;;;4.60;4.20;;;;;;;22.23;56.95;99897.38;104359;1254;60618;-60
2023/05/18 04:45:32;;;;;;;4.50;4.10;;;;;;;22.33;57.18;99897.59;104338;1271;73558;-60
2023/05/18 04:48:00;;;;;;;3.80;3.50;;;;;;;22.40;56.81;99898.38;104343;1261;69955;-60
2023/05/18 04:50:28;;;;;;;;;;;;;;;22.47;56.35;99895.77;104380;1257;72437;-60
2023/05/18 04:52:56;;;;;;;;;;;;;;;22.58;56.18;99900.59;104423;1257;63067;-60
2023/05/18 04:55:26;;;;;;;3.30;3.00;;;;;;;22.60;55.88;99901.60;104386;1258;60481;-60
2023/05/18 04:57:59;;;;;;;4.20;3.80;;;;;;;22.58;55.60;99901.24;104459;1254;73828;-60
2023/05/18 05:00:27;;;;;;;4.00;3.60;;;;;;;22.66;55.33;99905.56;107887;1254;70725;-60
2023/05/18 05:02:55;;;;;;;4.60;3.80;;;;;;;22.75;55.67;99905.84;106726;1258;73134;-60
2023/05/18 05:05:23;;;;;;;;;;;;;;;22.81;55.74;99904.59;104525;1257;62229;-61
2023/05/18 05:07:51;;;;;;;6.70;4.30;;;;;;;22.91;55.59;99903.31;104403;1270;60543;-59
2023/05/18 05:10:19;;;;;;;5.80;3.90;;;;;;;22.93;55.22;99909.52;104502;1258;76677;-61
2023/05/18 05:12:48;;;;;;;4.50;4.10;;;;;;;23.02;56.13;99912.00;104421;1266;70244;-59
2023/05/18 05:15:16;;;;;;;4.80;4.40;;;;;;;23.10;55.40;99913.98;104502;1259;72754;-59
2023/05/18 05:17:45;;;;;;;6.50;4.60;;;;;;;23.15;55.25;99915.64;104440;1260;62048;-59
2023/05/18 05:20:13;;;;;;;5.30;4.80;;;;;;;23.23;55.12;99914.52;104294;1261;61075;-60
2023/05/18 05:22:40;;;;;;;5.20;4.80;;;;;;;23.32;54.74;99910.14;104376;1253;73461;-60
2023/05/18 05:25:10;;;;;;;4.60;4.20;;;;;;;23.39;54.65;99908.42;104428;1254;69592;-61
2023/05/18 05:27:38;;;;;;;5.20;4.70;;;;;;;23.47;54.53;99909.13;108237;1253;74044;-60
2023/05/18 05:30:06;;;;;;;4.40;4.10;;;;;;;23.60;54.39;99911.71;105917;1254;62251;-60
2023/05/18 05:32:35;;;;;;;4.20;3.90;;;;;;;23.70;54.16;99911.33;104735;1254;61539;-60
2023/05/18 05:35:05;;;;;;;5.60;4.50;;;;;;;23.81;53.87;99911.16;104546;1267;73374;-60
2023/05/18 05:37:33;;;;;;;4.80;4.00;;;;;;;23.92;53.96;99909.66;104586;1267;70060;-60
2023/05/18 05:40:00;;;;;;;4.50;4.10;;;;;;;23.99;53.73;99910.17;104412;1264;72291;-60
2023/05/18 05:42:31;;;;;;;4.70;4.10;;;;;;;24.08;53.30;99909.75;104285;1259;64262;-60
2023/05/18 05:44:58;;;;;;;4.70;4.10;;;;;;;24.13;52.94;99911.63;104384;1260;60588;-59
2023/05/18 05:47:26;;;;;;;4.50;4.00;;;;;;;24.21;52.63;99918.33;104357;1268;74760;-59
2023/05/18 05:49:54;;;;;;;;;;;;;;;24.32;52.11;99918.34;104318;1267;70460;-57
2023/05/18 05:52:21;;;;;;;5.50;3.70;;;;;;;24.46;51.68;99922.70;104324;1270;75297;-60
2023/05/18 05:54:49;;;;;;;4.00;3.30;;;;;;;24.50;51.31;99922.21;104435;1267;61737;-60
2023/05/18 05:57:17;;;;;;;4.90;3.80;;;;;;;24.57;51.43;99925.80;104382;1254;60613;-60
2023/05/18 05:59:44;;;;;;;5.90;3.90;;;;;;;24.68;51.66;99925.88;105110;1253;75631;-60
2023/05/18 06:02:13;;;;;;;4.90;3.20;;;;;;;24.80;51.41;99923.26;108166;1252;70007;-61
2023/05/18 06:04:41;;;;;;;4.20;3.80;;;;;;;24.91;50.76;99925.55;105111;1253;73311;-60
2023/05/18 06:07:08;;;;;;;5.60;3.80;;;;;;;25.01;50.90;99925.13;104645;1257;62389;-60
2023/05/18 06:09:36;;;;;;;4.80;4.40;;;;;;;25.13;50.55;99923.98;104478;1270;60569;-61
2023/05/18 06:12:03;;;;;;;6.40;4.70;;;;;;;25.24;50.65;99929.45;104356;1273;73392;-62
2023/05/18 06:14:32;;;;;;;6.40;4.80;;;;;;;25.37;49.57;99932.38;104490;1274;69812;-61
2023/05/18 06:17:00;;;;;;;4.40;4.00;;;;;;;25.45;49.61;99931.38;104328;1262;72594;-61
2023/05/18 06:19:27;;;;;;;4.70;3.90;;;;;;;25.61;49.42;99927.09;104276;1253;62282;-61
2023/05/18 06:21:54;;;;;;;3.90;3.50;;;;;;;25.74;49.00;99928.64;104475;1260;61005;-62
2023/05/18 06:24:24;;;;;;;3.80;3.30;;;;;;;25.81;48.47;99928.39;104274;1264;74005;-61
2023/05/18 06:27:15;;;;;;;3.40;3.00;;;;;;;25.95;48.10;99926.63;104266;1263;69749;-61
2023/05/18 06:29:51;;;;;;;7.00;3.00;;;;;;;26.06;48.13;99925.66;104369;1258;73017;-61
2023/05/18 06:32:45;;;;;;;3.20;2.90;;;;;;;26.17;47.21;99924.89;104266;1254;61890;-61
2023/05/18 06:35:12;;;;;;;3.50;3.20;;;;;;;26.24;46.82;99925.95;104384;1256;61156;-61
2023/05/18 06:37:39;;;;;;;2.90;2.60;;;;;;;26.32;46.32;99923.22;104281;1260;74009;-61
2023/05/18 06:40:08;;;;;;;2.80;2.40;;;;;;;26.31;46.57;99919.71;104428;1254;71177;-61
2023/05/18 06:42:35;;;;;;;2.70;2.40;;;;;;;26.48;46.42;99923.64;104276;1254;73566;-60
2023/05/18 06:45:22;;;;;;;4.90;2.90;;;;;;;26.62;45.92;99925.84;104296;1266;61482;-61
2023/05/18 06:47:52;;;;;;;2.80;2.50;;;;;;;26.75;45.94;99929.46;104452;1260;62555;-61
2023/05/18 06:50:20;;;;;;;2.60;2.40;;;;;;;26.91;45.00;99928.43;104433;1256;73452;-61
2023/05/18 06:52:47;;;;;;;3.10;2.50;;;;;;;27.06;44.50;99930.14;104425;1260;69251;-61
2023/05/18 06:55:14;;;;;;;3.80;2.80;;;;;;;27.13;43.84;99930.14;104331;1261;72558;-61
2023/05/18 06:57:42;;;;;;;5.70;2.80;;;;;;;27.20;44.16;99928.06;104371;1257;60720;-60
2023/05/18 07:00:11;;;;;;;6.00;2.10;;;;;;;27.30;43.45;99925.55;104392;1260;60547;-61
2023/05/18 07:02:39;;;;;;;2.20;1.90;;;;;;;27.37;42.78;99928.41;104242;1259;75416;-62
2023/05/18 07:05:08;;;;;;;3.90;2.10;;;;;;;27.51;41.84;99928.92;104337;1272;71711;-61
2023/05/18 07:07:36;;;;;;;2.60;2.20;;;;;;;27.67;40.44;99931.98;104430;1265;74013;-61
2023/05/18 07:10:04;;;;;;;3.20;1.60;;;;;;;27.82;39.95;99931.96;104406;1253;60030;-61
2023/05/18 07:12:32;;;;;;;3.30;1.40;;;;;;;28.00;39.87;99929.91;104451;1264;60552;-60
2023/05/18 07:14:59;;;;;;;2.30;1.70;;;;;;;28.15;39.12;99931.14;104249;1273;74185;-60
2023/05/18 07:17:26;;;;;;;1.90;1.50;;;;;;;28.24;38.84;99925.51;104454;1253;69976;-60
2023/05/18 07:19:53;;;;;;;1.90;1.80;;;;;;;28.29;39.17;99927.58;104497;1259;72855;-60
2023/05/18 07:22:20;;;;;;;2.30;1.40;;;;;;;28.40;37.91;99931.09;104260;1254;60583;-63
2023/05/18 07:24:48;;;;;;;1.60;1.50;;;;;;;28.51;36.17;99927.66;104465;1254;60555;-63
2023/05/18 07:27:15;;;;;;;1.90;1.60;;;;;;;28.61;36.29;99923.83;104487;1269;73974;-62
2023/05/18 07:29:42;;;;;;;2.00;1.50;;;;;;;28.70;37.04;99930.40;104372;1273;69855;-63
2023/05/18 07:32:09;;;;;;;1.90;1.60;;;;;;;28.80;35.88;99928.18;104356;1254;72507;-62
2023/05/18 07:34:37;;;;;;;1.90;1.80;;;;;;;28.90;35.41;99930.27;104471;1259;60671;-62
2023/05/18 07:37:04;;;;;;;2.40;2.00;;;;;;;28.96;35.78;99929.56;104526;1256;60931;-59
2023/05/18 07:39:31;;;;;;;2.00;1.90;;;;;;;28.99;35.67;99927.94;104604;1254;74345;-60
2023/05/18 07:41:58;;;;;;;5.10;1.90;;;;;;;29.05;35.34;99928.86;104291;1262;69035;-62
2023/05/18 07:44:26;;;;;;;2.20;2.00;;;;;;;29.07;34.64;99923.20;104457;1266;72069;-61
2023/05/18 07:46:53;;;;;;;2.40;1.90;;;;;;;29.16;33.84;99926.58;104413;1254;60676;-62
2023/05/18 07:49:22;;;;;;;2.10;2.00;;;;;;;29.25;33.74;99929.30;104389;1260;60802;-62
2023/05/18 07:51:49;;;;;;;2.10;2.00;;;;;;;29.37;33.85;99929.51;104406;1257;74115;-62
2023/05/18 07:54:17;;;;;;;;;;;;;;;29.41;33.08;99925.63;104343;1260;70079;-62
2023/05/18 07:56:44;;;;;;;3.30;1.80;;;;;;;29.51;33.05;99928.59;104457;1258;73014;-62
2023/05/18 07:59:11;;;;;;;2.30;1.90;;;;;;;29.55;33.05;99926.28;104378;1260;60730;-61
2023/05/18 08:01:39;;;;;;;2.30;2.10;;;;;;;29.62;33.50;99930.48;104345;1256;60951;-63
2023/05/18 08:04:06;;;;;;;3.00;2.20;;;;;;;29.69;33.53;99924.79;104487;1270;74231;-61
2023/05/18 08:06:34;;;;;;;2.30;2.10;;;;;;;29.76;32.61;99924.23;104248;1260;70188;-62
2023/05/18 08:09:01;;;;;;;2.00;1.90;;;;;;;29.84;32.69;99928.53;104228;1257;73528;-63
2023/05/18 08:11:28;;;;;;;2.80;2.10;;;;;;;30.00;32.64;99928.96;104405;1266;60309;-60
2023/05/18 08:13:55;;;;;;;2.90;2.50;;;;;;;30.07;32.49;99926.81;104396;1252;60581;-62
2023/05/18 08:16:22;;;;;;;2.80;2.50;;;;;;;30.09;32.66;99925.47;104321;1270;74857;-60
2023/05/18 08:18:50;;;;;;;2.30;2.10;;;;;;;30.12;31.97;99925.09;104479;1263;70147;-61
2023/05/18 08:21:17;;;;;;;3.00;2.30;;;;;;;30.16;31.56;99928.11;104422;1267;73085;-60
2023/05/18 08:23:45;;;;;;;6.40;2.50;;;;;;;30.18;30.07;99920.02;104386;1254;62884;-60
2023/05/18 08:26:13;;;;;;;2.60;2.30;;;;;;;30.22;31.83;99916.07;104434;1254;60676;-60
2023/05/18 08:28:40;;;;;;;2.70;2.50;;;;;;;30.34;31.69;99917.75;104325;1254;73406;-60
2023/05/18 08:31:08;;;;;;;3.30;2.30;;;;;;;30.43;30.99;99915.93;104468;1258;69461;-61
2023/05/18 08:33:35;;;;;;;2.50;2.30;;;;;;;30.47;31.50;99916.42;104447;1258;73565;-61
2023/05/18 08:36:02;;;;;;;2.70;1.90;;;;;;;30.53;30.97;99911.33;104353;1254;60566;-62
2023/05/18 08:38:30;;;;;;;2.80;2.40;;;;;;;30.57;30.32;99915.69;104394;1257;62878;-63
2023/05/18 08:41:04;;;;;;;2.60;2.40;;;;;;;30.58;30.57;99910.86;104413;1253;76241;-62
2023/05/18 08:43:32;;;;;;;3.00;2.70;;;;;;;30.62;30.48;99910.61;104308;1260;70376;-61
2023/05/18 08:46:25;;;;;;;3.30;2.60;;;;;;;30.68;30.03;99912.05;104220;1256;72713;-62
2023/05/18 08:48:52;;;;;;;3.10;2.30;;;;;;;30.77;29.37;99911.84;104336;1267;60558;-62
2023/05/18 08:51:20;;;;;;;2.90;2.70;;;;;;;30.83;29.80;99908.91;104331;1267;60581;-63
2023/05/18 08:53:51;;;;;;;4.10;2.50;;;;;;;30.87;28.09;99907.75;104438;1257;75740;-61
2023/05/18 08:56:22;;;;;;;2.80;2.50;;;;;;;30.95;28.83;99905.05;104336;1270;70070;-60
2023/05/18 08:58:52;;;;;;;3.20;2.70;;;;;;;31.00;29.23;99901.89;104311;1257;73288;-62
2023/05/18 09:01:19;;;;;;;3.20;2.60;;;;;;;31.03;28.79;99902.35;104299;1254;60577;-63
2023/05/18 09:03:50;;;;;;;2.80;2.50;;;;;;;31.05;27.30;99899.31;104387;1254;62847;-59
2023/05/18 09:06:17;;;;;;;3.70;2.60;;;;;;;31.12;28.38;99900.98;104383;1257;73649;-62
2023/05/18 09:08:44;;;;;;;2.50;2.30;;;;;;;31.20;28.28;99895.91;104393;1270;70057;-61
2023/05/18 09:11:11;;;;;;;4.40;2.80;;;;;;;31.27;27.96;99895.36;104284;1257;74209;-59
2023/05/18 09:13:39;;;;;;;2.60;2.40;;;;;;;31.28;27.47;99892.06;104366;1254;62633;-61
2023/05/18 09:16:06;;;;;;;2.60;2.40;;;;;;;31.34;27.95;99896.77;104375;1260;61115;-61
2023/05/18 09:18:34;;;;;;;2.80;2.60;;;;;;;31.39;27.60;99898.10;104352;1260;74083;-60
2023/05/18 09:21:01;;;;;;;2.60;2.40;;;;;;;31.42;27.76;99891.56;104349;1262;69168;-60
2023/05/18 09:23:29;;;;;;;4.00;2.40;;;;;;;31.47;27.70;99897.30;104356;1259;72423;-60
2023/05/18 09:25:56;;;;;;;;;;;;;;;31.54;27.77;99898.05;104367;1254;60830;-61
2023/05/18 09:28:36;;;;;;;4.00;2.40;;;;;;;31.66;27.05;99896.06;104337;1254;60552;-60
2023/05/18 09:31:06;;;;;;;2.90;2.60;;;;;;;31.52;27.76;99901.79;104279;1276;75761;-62
2023/05/18 09:33:37;;;;;;;2.90;2.50;;;;;;;31.63;26.67;99898.49;104531;1256;69548;-61
2023/05/18 09:36:06;;;;;;;2.70;2.50;;;;;;;31.75;26.21;99893.36;104297;1255;73223;-61
2023/05/18 09:38:37;;;;;;;3.30;3.10;;;;;;;31.80;26.80;99893.61;104324;1254;60624;-62
2023/05/18 09:41:09;;;;;;;5.00;2.90;;;;;;;31.81;26.29;99887.42;104441;1260;60748;-61
2023/05/18 09:43:36;;;;;;;3.60;3.00;;;;;;;31.78;26.81;99886.45;104407;1255;74168;-61
2023/05/18 09:46:07;;;;;;;3.70;3.30;;;;;;;31.82;26.90;99883.14;104353;1257;69508;-60
2023/05/18 09:48:35;;;;;;;3.80;3.40;;;;;;;31.90;26.61;99885.91;104237;1274;73017;-60
2023/05/18 09:51:05;;;;;;;4.00;3.00;;;;;;;31.95;26.45;99882.95;104426;1254;60575;-61
2023/05/18 09:53:38;;;;;;;3.40;3.10;;;;;;;31.57;26.88;99881.09;104186;1257;61171;-60
2023/05/18 09:56:10;;;;;;;4.10;3.70;;;;;;;31.87;26.25;99881.86;104339;1256;74503;-59
2023/05/18 09:58:38;;;;;;;4.80;3.70;;;;;;;31.82;26.89;99881.41;104450;1258;70103;-61
2023/05/18 10:01:05;;;;;;;3.60;3.30;;;;;;;31.89;26.88;99880.84;104537;1257;74929;-61
2023/05/18 10:03:35;;;;;;;;;;;;;;;32.05;26.75;99881.08;104373;1259;61214;-61
2023/05/18 10:06:04;;;;;;;3.60;3.30;;;;;;;32.17;26.54;99884.64;104363;1259;60609;-61
2023/05/18 10:08:32;;;;;;;4.00;3.20;;;;;;;32.08;25.85;99881.11;104479;1256;74805;-61
2023/05/18 10:10:59;;;;;;;3.60;3.30;;;;;;;32.07;25.93;99877.08;104323;1272;72035;-61
2023/05/18 10:13:27;;;;;;;4.40;3.60;;;;;;;32.09;26.30;99867.52;104340;1259;73522;-63
2023/05/18 10:15:55;;;;;;;3.60;3.30;;;;;;;32.15;25.53;99867.34;104315;1257;61427;-61
2023/05/18 10:18:27;;;;;;;4.10;3.70;;;;;;;32.13;25.94;99869.80;104348;1260;61122;-61
2023/05/18 10:20:55;;;;;;;3.70;3.40;;;;;;;32.24;25.72;99873.41;104308;1259;74013;-61
2023/05/18 10:23:29;;;;;;;3.90;3.60;;;;;;;32.38;25.15;99869.01;104393;1255;70874;-61
2023/05/18 10:25:56;;;;;;;4.10;3.50;;;;;;;32.46;25.55;99865.60;104331;1272;72628;-61
2023/05/18 10:28:29;;;;;;;;;;;;;;;32.54;25.15;99864.94;104380;1257;62775;-60
2023/05/18 10:30:57;;;;;;;4.30;3.30;;;;;;;32.64;24.39;99862.19;104321;1260;61803;-61
2023/05/18 10:33:26;;;;;;;4.10;3.60;;;;;;;32.67;24.78;99861.56;104364;1270;75180;-61
2023/05/18 10:35:56;;;;;;;4.30;3.90;;;;;;;32.70;24.80;99869.33;104292;1257;70815;-61
2023/05/18 10:38:27;;;;;;;4.30;3.70;;;;;;;32.65;24.24;99862.56;104452;1257;73446;-60
2023/05/18 10:40:55;;;;;;;3.90;3.60;;;;;;;32.61;24.15;99861.64;104366;1260;60812;-60
2023/05/18 10:43:26;;;;;;;4.00;3.70;;;;;;;32.69;23.87;99854.95;104388;1254;60921;-61
2023/05/18 10:45:57;;;;;;;4.20;3.90;;;;;;;32.78;23.16;99851.75;104473;1259;74312;-61
2023/05/18 10:48:25;;;;;;;5.30;4.80;;;;;;;32.84;23.31;99849.00;104471;1266;69219;-61
2023/05/18 10:53:32;;;;;;;4.10;3.70;;;;;;;32.22;24.41;99858.34;101437;1294;600676;-61
2023/05/18 10:56:00;;;;;;;4.00;3.70;;;;;;;33.00;22.62;99851.08;103543;1267;61317;-61
2023/05/18 10:58:28;;;;;;;5.50;4.00;;;;;;;33.03;23.07;99856.54;103498;1271;60855;-62
2023/05/18 11:01:00;;;;;;;3.70;3.40;;;;;;;33.01;22.49;99856.16;103577;1273;73017;-64
2023/05/18 11:03:27;;;;;;;3.50;3.30;;;;;;;33.01;22.22;99855.66;103651;1272;72134;-61
2023/05/18 11:06:05;;;;;;;4.00;3.70;;;;;;;33.05;22.04;99851.65;103538;1288;73305;-61
2023/05/18 11:08:33;;;;;;;3.80;3.50;;;;;;;33.11;21.33;99851.75;103814;1268;61339;-61
2023/05/18 11:11:01;;;;;;;;;;;;;;;33.16;22.31;99849.36;103884;1270;61008;-61
2023/05/18 11:13:30;;;;;;;3.70;3.50;;;;;;;33.24;21.82;99850.00;104242;1261;74760;-61
2023/05/18 11:16:00;;;;;;;3.40;3.20;;;;;;;33.16;21.95;99853.08;104062;1265;69696;-61
2023/05/18 11:18:34;;;;;;;4.10;3.80;;;;;;;33.19;21.82;99840.15;104123;1260;74948;-61
2023/05/18 11:21:02;;;;;;;4.10;3.80;;;;;;;33.24;21.12;99837.81;104226;1257;62743;-61
2023/05/18 11:23:32;;;;;;;3.60;3.30;;;;;;;33.25;21.56;99840.79;104127;1270;60440;-61
2023/05/18 11:26:01;;;;;;;4.40;4.00;;;;;;;33.29;21.98;99840.25;104203;1257;73825;-62
2023/05/18 11:28:29;;;;;;;4.10;3.80;;;;;;;33.32;21.88;99840.88;104039;1270;70715;-61
2023/05/18 11:30:57;;;;;;;4.50;3.80;;;;;;;33.31;21.80;99843.55;104208;1262;72968;-62
2023/05/18 11:33:29;;;;;;;4.10;3.80;;;;;;;33.33;20.87;99838.27;104364;1251;61154;-61
2023/05/18 11:35:59;;;;;;;4.50;4.10;;;;;;;33.33;20.87;99841.70;104374;1256;60696;-61
2023/05/18 11:38:51;;;;;;;5.50;4.40;;;;;;;33.32;20.89;99839.33;104474;1255;72804;-61